Time;durP1;ratioP1;P1;durP2;ratioP2;P2;SDS_P1;SDS_P2;PMS_P1;PMS_P2;Temp;Humidity;BMP_temperature;BMP_pressure;BME280_temperature;BME280_humidity;BME280_pressure;Samples;Min_cycle;Max_cycle;Signal;HPM_P1;HPM_P2
2023/06/05 00:01:40;;;;;;;;;;;;;;;;;;5024807;28;4489;-58
2023/06/05 00:04:05;;;;;;;;;;;;;;;;;;5024521;28;4575;-59
2023/06/05 00:06:31;;;;;;;;;;;;;;;;;;5024166;28;4494;-60
2023/06/05 00:08:56;;;;;;;;;;;;;;;;;;5024522;28;3353;-59
2023/06/05 00:11:21;;;;;;;;;;;;;;;;;;5024021;28;4485;-60
2023/06/05 00:13:47;;;;;;;;;;;;;;;;;;5025717;28;5024;-60
2023/06/05 00:16:12;;;;;;;;;;;;;;;;;;5023755;28;4513;-58
2023/06/05 00:18:37;;;;;;;;;;;;;;;;;;5023660;28;4649;-57
2023/06/05 00:21:03;;;;;;;;;;;;;;;;;;5026550;28;3469;-58
2023/06/05 00:23:30;;;;;;;;;;;;;;;;;;5043601;28;4682;-58
2023/06/05 00:25:57;;;;;;;;;;;;;;;;;;5029226;28;4452;-62
2023/06/05 00:28:24;;;;;;;;;;;;;;;;;;5044508;28;4512;-59
2023/06/05 00:30:50;;;;;;;;;;;;;;;;;;5025453;28;4641;-57
2023/06/05 00:33:15;;;;;;;;;;;;;;;;;;5030294;28;1137;-57
2023/06/05 00:35:40;;;;;;;;;;;;;;;;;;5029659;28;4930;-57
2023/06/05 00:38:06;;;;;;;;;;;;;;;;;;5027683;28;4940;-60
2023/06/05 00:40:32;;;;;;;;;;;;;;;;;;5026373;28;4652;-58
2023/06/05 00:42:58;;;;;;;;;;;;;;;;;;5029771;28;4492;-56
2023/06/05 00:45:23;;;;;;;;;;;;;;;;;;5028246;28;3354;-59
2023/06/05 00:47:49;;;;;;;;;;;;;;;;;;5031375;28;4604;-59
2023/06/05 00:50:15;;;;;;;;;;;;;;;;;;5042956;28;4631;-57
2023/06/05 00:52:41;;;;;;;;;;;;;;;;;;5029128;28;4951;-59
2023/06/05 00:55:06;;;;;;;;;;;;;;;;;;5046487;28;5149;-58
2023/06/05 00:57:34;;;;;;;;;;;;;;;;;;5031552;28;4425;-61
2023/06/05 00:59:59;;;;;;;;;;;;;;;;;;5029426;28;3384;-57
2023/06/05 01:02:27;;;;;;;;;;;;;;;;;;5059475;28;5094;-58
2023/06/05 01:04:52;;;;;;;;;;;;;;;;;;5034868;28;4638;-59
2023/06/05 01:07:17;;;;;;;;;;;;;;;;;;5032923;28;4573;-60
2023/06/05 01:09:44;;;;;;;;;;;;;;;;;;5032218;28;5078;-57
2023/06/05 01:12:28;;;;;;;;;;;;;;;;;;5043081;28;3045;-58
2023/06/05 01:14:58;;;;;;;;;;;;;;;;;;5028301;28;5085;-59
2023/06/05 01:17:24;;;;;;;;;;;;;;;;;;5029315;28;4695;-60
2023/06/05 01:19:49;;;;;;;;;;;;;;;;;;5028780;28;5135;-58
2023/06/05 01:22:15;;;;;;;;;;;;;;;;;;5060908;28;4522;-59
2023/06/05 01:24:41;;;;;;;;;;;;;;;;;;5030509;28;4957;-58
2023/06/05 01:27:18;;;;;;;;;;;;;;;;;;5029598;28;3333;-58
2023/06/05 01:30:07;;;;;;;;;;;;;;;;;;5029796;28;4505;-58
2023/06/05 01:32:37;;;;;;;;;;;;;;;;;;5024601;28;5030;-58
2023/06/05 01:35:06;;;;;;;;;;;;;;;;;;5026093;28;4666;-58
2023/06/05 01:37:40;;;;;;;;;;;;;;;;;;5027656;28;4536;-59
2023/06/05 01:40:07;;;;;;;;;;;;;;;;;;5056684;28;5034;-57
2023/06/05 01:42:32;;;;;;;;;;;;;;;;;;5042744;28;5104;-60
2023/06/05 01:44:57;;;;;;;;;;;;;;;;;;5044462;28;3466;-57
2023/06/05 01:47:23;;;;;;;;;;;;;;;;;;5043431;28;4701;-59
2023/06/05 01:49:48;;;;;;;;;;;;;;;;;;5056499;28;5206;-58
2023/06/05 01:52:13;;;;;;;;;;;;;;;;;;5026951;28;4489;-60
2023/06/05 01:54:42;;;;;;;;;;;;;;;;;;5049127;28;4520;-58
2023/06/05 01:57:07;;;;;;;;;;;;;;;;;;5029370;28;3456;-56
2023/06/05 01:59:33;;;;;;;;;;;;;;;;;;5026774;28;4460;-58
2023/06/05 02:01:59;;;;;;;;;;;;;;;;;;5025542;28;5247;-57
2023/06/05 02:04:24;;;;;;;;;;;;;;;;;;5026980;28;4673;-59
2023/06/05 02:06:52;;;;;;;;;;;;;;;;;;5028115;28;5026;-59
2023/06/05 02:09:18;;;;;;;;;;;;;;;;;;5028481;28;3403;-57
2023/06/05 02:11:45;;;;;;;;;;;;;;;;;;5024895;28;4943;-59
2023/06/05 02:14:12;;;;;;;;;;;;;;;;;;5027307;28;4444;-56
2023/06/05 02:16:38;;;;;;;;;;;;;;;;;;5026808;28;4512;-57
2023/06/05 02:19:03;;;;;;;;;;;;;;;;;;5042859;28;5377;-61
2023/06/05 02:21:32;;;;;;;;;;;;;;;;;;5028749;28;4645;-59
2023/06/05 02:23:58;;;;;;;;;;;;;;;;;;5031669;28;3412;-57
2023/06/05 02:26:23;;;;;;;;;;;;;;;;;;5028670;28;5094;-57
2023/06/05 02:28:48;;;;;;;;;;;;;;;;;;5027865;28;4875;-58
2023/06/05 02:31:15;;;;;;;;;;;;;;;;;;5027965;28;4573;-61
2023/06/05 02:33:41;;;;;;;;;;;;;;;;;;5058605;28;4807;-57
2023/06/05 02:36:09;;;;;;;;;;;;;;;;;;5029175;28;1382;-57
2023/06/05 02:38:35;;;;;;;;;;;;;;;;;;5027176;28;4654;-60
2023/06/05 02:41:02;;;;;;;;;;;;;;;;;;5027215;28;5045;-58
2023/06/05 02:43:27;;;;;;;;;;;;;;;;;;5029297;28;4708;-58
2023/06/05 02:45:52;;;;;;;;;;;;;;;;;;5027003;28;4515;-58
2023/06/05 02:48:17;;;;;;;;;;;;;;;;;;5025722;28;3483;-61
2023/06/05 02:50:43;;;;;;;;;;;;;;;;;;5044578;28;5090;-58
2023/06/05 02:53:08;;;;;;;;;;;;;;;;;;5045606;28;4992;-58
2023/06/05 02:55:33;;;;;;;;;;;;;;;;;;5042073;28;5039;-58
2023/06/05 02:57:59;;;;;;;;;;;;;;;;;;5026238;28;4677;-59
2023/06/05 03:00:25;;;;;;;;;;;;;;;;;;5029094;28;3290;-60
2023/06/05 03:02:50;;;;;;;;;;;;;;;;;;5057046;28;4671;-58
2023/06/05 03:05:17;;;;;;;;;;;;;;;;;;5025196;28;5458;-60
2023/06/05 03:07:42;;;;;;;;;;;;;;;;;;5038946;28;4743;-58
2023/06/05 03:10:08;;;;;;;;;;;;;;;;;;5027547;28;4530;-58
2023/06/05 03:12:33;;;;;;;;;;;;;;;;;;5031925;28;4528;-59
2023/06/05 03:14:58;;;;;;;;;;;;;;;;;;5026820;28;3298;-58
2023/06/05 03:17:24;;;;;;;;;;;;;;;;;;5024512;28;4466;-58
2023/06/05 03:19:50;;;;;;;;;;;;;;;;;;5020932;28;4559;-62
2023/06/05 03:22:16;;;;;;;;;;;;;;;;;;5024930;28;4525;-59
2023/06/05 03:24:41;;;;;;;;;;;;;;;;;;5057175;28;4489;-60
2023/06/05 03:27:07;;;;;;;;;;;;;;;;;;5026657;28;3275;-58
2023/06/05 03:29:32;;;;;;;;;;;;;;;;;;5025039;28;4517;-59
2023/06/05 03:31:58;;;;;;;;;;;;;;;;;;5025132;28;4650;-57
2023/06/05 03:34:25;;;;;;;;;;;;;;;;;;5025750;28;4567;-58
2023/06/05 03:36:51;;;;;;;;;;;;;;;;;;5023876;28;4683;-58
2023/06/05 03:39:16;;;;;;;;;;;;;;;;;;5024061;28;3327;-59
2023/06/05 03:41:41;;;;;;;;;;;;;;;;;;5026010;28;4437;-60
2023/06/05 03:44:08;;;;;;;;;;;;;;;;;;5025010;28;4743;-57
2023/06/05 03:46:33;;;;;;;;;;;;;;;;;;5025143;28;5252;-60
2023/06/05 03:49:00;;;;;;;;;;;;;;;;;;5024855;28;4705;-60
2023/06/05 03:51:29;;;;;;;;;;;;;;;;;;5025774;28;3303;-61
2023/06/05 03:53:55;;;;;;;;;;;;;;;;;;5024976;28;5327;-60
2023/06/05 03:56:21;;;;;;;;;;;;;;;;;;5025005;28;4825;-61
2023/06/05 03:58:48;;;;;;;;;;;;;;;;;;5053479;28;4511;-58
2023/06/05 04:01:13;;;;;;;;;;;;;;;;;;5023191;28;4504;-58
2023/06/05 04:03:38;;;;;;;;;;;;;;;;;;5023786;28;4843;-57
2023/06/05 04:06:04;;;;;;;;;;;;;;;;;;5055917;28;3361;-58
2023/06/05 04:08:30;;;;;;;;;;;;;;;;;;5023521;28;4529;-57
2023/06/05 04:10:55;;;;;;;;;;;;;;;;;;5024349;28;4595;-59
2023/06/05 04:13:21;;;;;;;;;;;;;;;;;;5025205;28;4713;-59
2023/06/05 04:15:48;;;;;;;;;;;;;;;;;;5026596;28;4489;-59
2023/06/05 04:18:15;;;;;;;;;;;;;;;;;;5026092;28;4757;-58
2023/06/05 04:20:40;;;;;;;;;;;;;;;;;;5025178;28;5507;-57
2023/06/05 04:23:05;;;;;;;;;;;;;;;;;;5024371;28;4640;-58
2023/06/05 04:25:31;;;;;;;;;;;;;;;;;;5026246;28;4498;-59
2023/06/05 04:27:57;;;;;;;;;;;;;;;;;;5026454;28;5520;-59
2023/06/05 04:30:22;;;;;;;;;;;;;;;;;;5024659;28;3243;-61
2023/06/05 04:32:54;;;;;;;;;;;;;;;;;;5024594;28;4647;-61
2023/06/05 04:35:20;;;;;;;;;;;;;;;;;;5023915;28;4496;-57
2023/06/05 04:37:46;;;;;;;;;;;;;;;;;;5023952;28;5000;-59
2023/06/05 04:40:11;;;;;;;;;;;;;;;;;;5026027;28;4494;-57
2023/06/05 04:42:36;;;;;;;;;;;;;;;;;;5026998;28;4711;-58
2023/06/05 04:45:06;;;;;;;;;;;;;;;;;;5026998;28;3251;-59
2023/06/05 04:47:32;;;;;;;;;;;;;;;;;;5022119;28;4724;-58
2023/06/05 04:50:03;;;;;;;;;;;;;;;;;;5023342;28;4719;-58
2023/06/05 04:52:29;;;;;;;;;;;;;;;;;;5038862;28;5102;-58
2023/06/05 04:54:54;;;;;;;;;;;;;;;;;;5018902;28;5127;-58
2023/06/05 04:57:20;;;;;;;;;;;;;;;;;;5040480;28;3296;-60
2023/06/05 04:59:46;;;;;;;;;;;;;;;;;;5023941;28;4440;-58
2023/06/05 05:02:12;;;;;;;;;;;;;;;;;;5022915;28;4515;-61
2023/06/05 05:04:37;;;;;;;;;;;;;;;;;;5023485;28;4550;-58
2023/06/05 05:07:02;;;;;;;;;;;;;;;;;;5024025;28;5192;-57
2023/06/05 05:09:28;;;;;;;;;;;;;;;;;;5028899;28;3333;-59
2023/06/05 05:11:53;;;;;;;;;;;;;;;;;;5023116;28;4554;-59
2023/06/05 05:14:18;;;;;;;;;;;;;;;;;;5027769;28;4687;-59
2023/06/05 05:16:44;;;;;;;;;;;;;;;;;;5060165;28;4540;-59
2023/06/05 05:19:09;;;;;;;;;;;;;;;;;;5028219;28;4697;-58
2023/06/05 05:21:36;;;;;;;;;;;;;;;;;;5027414;28;4536;-61
2023/06/05 05:24:01;;;;;;;;;;;;;;;;;;5029389;28;2025;-58
2023/06/05 05:26:26;;;;;;;;;;;;;;;;;;5033429;28;4529;-58
2023/06/05 05:28:52;;;;;;;;;;;;;;;;;;5028236;28;4654;-59
2023/06/05 05:31:17;;;;;;;;;;;;;;;;;;5024822;28;4496;-59
2023/06/05 05:33:42;;;;;;;;;;;;;;;;;;5026131;28;4688;-59
2023/06/05 05:36:08;;;;;;;;;;;;;;;;;;5028595;28;3593;-58
2023/06/05 05:38:34;;;;;;;;;;;;;;;;;;5042399;28;4573;-60
2023/06/05 05:40:59;;;;;;;;;;;;;;;;;;5027342;28;4469;-59
2023/06/05 05:43:25;;;;;;;;;;;;;;;;;;5027374;28;5169;-59
2023/06/05 05:45:52;;;;;;;;;;;;;;;;;;5028236;28;4508;-58
2023/06/05 05:48:17;;;;;;;;;;;;;;;;;;5028236;28;3243;-58
2023/06/05 05:50:42;;;;;;;;;;;;;;;;;;5027046;28;5011;-58
2023/06/05 05:53:08;;;;;;;;;;;;;;;;;;5042381;28;4778;-58
2023/06/05 05:55:34;;;;;;;;;;;;;;;;;;5027254;28;5068;-59
2023/06/05 05:58:00;;;;;;;;;;;;;;;;;;5027752;28;4558;-59
2023/06/05 06:00:25;;;;;;;;;;;;;;;;;;5027045;28;3278;-60
2023/06/05 06:02:52;;;;;;;;;;;;;;;;;;5027466;28;5096;-59
2023/06/05 06:05:18;;;;;;;;;;;;;;;;;;5025780;28;5116;-58
2023/06/05 06:07:43;;;;;;;;;;;;;;;;;;5024657;28;4485;-59
2023/06/05 06:10:09;;;;;;;;;;;;;;;;;;5025643;28;4524;-59
2023/06/05 06:12:34;;;;;;;;;;;;;;;;;;5024869;28;4715;-61
2023/06/05 06:15:01;;;;;;;;;;;;;;;;;;5027461;28;3322;-60
2023/06/05 06:17:27;;;;;;;;;;;;;;;;;;5047254;28;4617;-57
2023/06/05 06:19:53;;;;;;;;;;;;;;;;;;5025310;28;5025;-60
2023/06/05 06:22:18;;;;;;;;;;;;;;;;;;5024520;28;4985;-58
2023/06/05 06:24:43;;;;;;;;;;;;;;;;;;5027790;28;4515;-58
2023/06/05 06:27:10;;;;;;;;;;;;;;;;;;5027646;28;3319;-59
2023/06/05 06:29:41;;;;;;;;;;;;;;;;;;5025747;28;4900;-60
2023/06/05 06:32:08;;;;;;;;;;;;;;;;;;5024355;28;5063;-59
2023/06/05 06:34:34;;;;;;;;;;;;;;;;;;5042122;28;4668;-57
2023/06/05 06:37:00;;;;;;;;;;;;;;;;;;5037570;28;4677;-58
2023/06/05 06:39:26;;;;;;;;;;;;;;;;;;5025844;28;3422;-62
2023/06/05 06:41:53;;;;;;;;;;;;;;;;;;5023918;28;5017;-59
2023/06/05 06:44:18;;;;;;;;;;;;;;;;;;5026436;28;4605;-58
2023/06/05 06:46:43;;;;;;;;;;;;;;;;;;5026023;28;4546;-58
2023/06/05 06:49:09;;;;;;;;;;;;;;;;;;5025581;28;4507;-58
2023/06/05 06:51:35;;;;;;;;;;;;;;;;;;5023655;28;4506;-59
2023/06/05 06:54:00;;;;;;;;;;;;;;;;;;5026718;28;3401;-58
2023/06/05 06:56:25;;;;;;;;;;;;;;;;;;5027058;28;4432;-57
2023/06/05 06:58:52;;;;;;;;;;;;;;;;;;5040934;28;4904;-57
2023/06/05 07:01:19;;;;;;;;;;;;;;;;;;5025940;28;5236;-58
2023/06/05 07:03:44;;;;;;;;;;;;;;;;;;5025998;28;4835;-58
2023/06/05 07:06:11;;;;;;;;;;;;;;;;;;5040450;28;3296;-58
2023/06/05 07:08:37;;;;;;;;;;;;;;;;;;5026708;28;5001;-61
2023/06/05 07:11:04;;;;;;;;;;;;;;;;;;5021753;28;4845;-58
2023/06/05 07:13:31;;;;;;;;;;;;;;;;;;5027155;28;4667;-58
2023/06/05 07:15:56;;;;;;;;;;;;;;;;;;5021071;28;4723;-59
2023/06/05 07:18:21;;;;;;;;;;;;;;;;;;5026524;28;4688;-59
2023/06/05 07:20:47;;;;;;;;;;;;;;;;;;5022918;28;5106;-59
2023/06/05 07:23:13;;;;;;;;;;;;;;;;;;5028377;28;4905;-57
2023/06/05 07:25:38;;;;;;;;;;;;;;;;;;5026205;28;5581;-59
2023/06/05 07:28:07;;;;;;;;;;;;;;;;;;5025526;28;4565;-58
2023/06/05 07:30:32;;;;;;;;;;;;;;;;;;5023403;28;4715;-58
2023/06/05 07:32:58;;;;;;;;;;;;;;;;;;5023897;28;3444;-57
2023/06/05 07:35:24;;;;;;;;;;;;;;;;;;5055875;28;4637;-57
2023/06/05 07:37:49;;;;;;;;;;;;;;;;;;5026940;28;4493;-57
2023/06/05 07:40:15;;;;;;;;;;;;;;;;;;5021731;28;4687;-56
2023/06/05 07:42:40;;;;;;;;;;;;;;;;;;5026493;28;4473;-57
2023/06/05 07:45:05;;;;;;;;;;;;;;;;;;5026172;28;3401;-57
2023/06/05 07:47:31;;;;;;;;;;;;;;;;;;5024919;28;5022;-58
2023/06/05 07:49:59;;;;;;;;;;;;;;;;;;5023265;28;5209;-58
2023/06/05 07:52:24;;;;;;;;;;;;;;;;;;5025688;28;4983;-57
2023/06/05 07:54:49;;;;;;;;;;;;;;;;;;5028519;28;4647;-59
2023/06/05 07:57:15;;;;;;;;;;;;;;;;;;5026134;28;3224;-57
2023/06/05 07:59:40;;;;;;;;;;;;;;;;;;5024442;28;4396;-58
2023/06/05 08:02:05;;;;;;;;;;;;;;;;;;5023414;28;4692;-56
2023/06/05 08:04:30;;;;;;;;;;;;;;;;;;5022833;28;4584;-56
2023/06/05 08:06:56;;;;;;;;;;;;;;;;;;5022626;28;4653;-58
2023/06/05 08:09:21;;;;;;;;;;;;;;;;;;5028097;28;3541;-58
2023/06/05 08:11:46;;;;;;;;;;;;;;;;;;5021758;28;4473;-58
2023/06/05 08:14:12;;;;;;;;;;;;;;;;;;5021795;28;4821;-60
2023/06/05 08:16:37;;;;;;;;;;;;;;;;;;5025389;28;5082;-57
2023/06/05 08:19:02;;;;;;;;;;;;;;;;;;5025570;28;4666;-58
2023/06/05 08:21:27;;;;;;;;;;;;;;;;;;5024993;28;3429;-57
2023/06/05 08:23:53;;;;;;;;;;;;;;;;;;5025266;28;4416;-57
2023/06/05 08:26:18;;;;;;;;;;;;;;;;;;5026145;28;4628;-58
2023/06/05 08:28:44;;;;;;;;;;;;;;;;;;5026515;28;4783;-58
2023/06/05 08:31:10;;;;;;;;;;;;;;;;;;5024001;28;4657;-58
2023/06/05 08:33:35;;;;;;;;;;;;;;;;;;5026610;28;4529;-56
2023/06/05 08:36:01;;;;;;;;;;;;;;;;;;5026375;28;3578;-57
2023/06/05 08:38:26;;;;;;;;;;;;;;;;;;5026755;28;4998;-59
2023/06/05 08:40:57;;;;;;;;;;;;;;;;;;5025143;28;5121;-57
2023/06/05 08:43:23;;;;;;;;;;;;;;;;;;5030486;28;4584;-57
2023/06/05 08:45:49;;;;;;;;;;;;;;;;;;5028992;28;4733;-63
2023/06/05 08:48:15;;;;;;;;;;;;;;;;;;5044024;28;4702;-60
2023/06/05 08:50:40;;;;;;;;;;;;;;;;;;5040365;28;4862;-62
2023/06/05 08:53:05;;;;;;;;;;;;;;;;;;5041564;28;4586;-63
2023/06/05 08:55:31;;;;;;;;;;;;;;;;;;5027339;28;4696;-59
2023/06/05 08:57:56;;;;;;;;;;;;;;;;;;5042230;28;5193;-64
2023/06/05 09:00:21;;;;;;;;;;;;;;;;;;5031431;28;3385;-61
2023/06/05 09:02:47;;;;;;;;;;;;;;;;;;5027841;28;4573;-63
2023/06/05 09:05:16;;;;;;;;;;;;;;;;;;5025643;28;4564;-61
2023/06/05 09:07:41;;;;;;;;;;;;;;;;;;5021981;28;4727;-60
2023/06/05 09:10:08;;;;;;;;;;;;;;;;;;5022697;28;4766;-62
2023/06/05 09:12:51;;;;;;;;;;;;;;;;;;5026567;28;4544;-64
2023/06/05 09:15:26;;;;;;;;;;;;;;;;;;5032177;28;3328;-66
2023/06/05 09:18:10;;;;;;;;;;;;;;;;;;5035405;28;4810;-63
2023/06/05 09:20:39;;;;;;;;;;;;;;;;;;5028075;28;4456;-61
2023/06/05 09:23:20;;;;;;;;;;;;;;;;;;5025811;28;4686;-61
2023/06/05 09:25:48;;;;;;;;;;;;;;;;;;5058908;28;4734;-61
2023/06/05 09:28:13;;;;;;;;;;;;;;;;;;5028557;28;5051;-62
2023/06/05 09:30:59;;;;;;;;;;;;;;;;;;5034959;28;5299;-63
2023/06/05 09:33:24;;;;;;;;;;;;;;;;;;5024642;28;3465;-62
2023/06/05 09:36:10;;;;;;;;;;;;;;;;;;5027835;28;4405;-61
2023/06/05 09:38:36;;;;;;;;;;;;;;;;;;5025823;28;5022;-62
2023/06/05 09:41:11;;;;;;;;;;;;;;;;;;5028982;28;5043;-62
2023/06/05 09:43:36;;;;;;;;;;;;;;;;;;5026408;28;4858;-62
2023/06/05 09:46:08;;;;;;;;;;;;;;;;;;5026555;28;4906;-62
2023/06/05 09:48:33;;;;;;;;;;;;;;;;;;5022360;28;4690;-65
2023/06/05 09:51:08;;;;;;;;;;;;;;;;;;5024117;28;3592;-63
2023/06/05 09:53:33;;;;;;;;;;;;;;;;;;5029155;28;5147;-64
2023/06/05 09:55:58;;;;;;;;;;;;;;;;;;5024694;28;4962;-64
2023/06/05 09:58:24;;;;;;;;;;;;;;;;;;5060511;28;4541;-64
2023/06/05 10:00:49;;;;;;;;;;;;;;;;;;5023994;28;4518;-63
2023/06/05 10:03:15;;;;;;;;;;;;;;;;;;5053558;28;1905;-62
2023/06/05 10:05:40;;;;;;;;;;;;;;;;;;5026982;28;4774;-63
2023/06/05 10:08:06;;;;;;;;;;;;;;;;;;5026810;28;5031;-63
2023/06/05 10:10:31;;;;;;;;;;;;;;;;;;5022004;28;4565;-62
2023/06/05 10:12:56;;;;;;;;;;;;;;;;;;5036249;28;5161;-63
2023/06/05 10:15:22;;;;;;;;;;;;;;;;;;5024824;28;3433;-64
2023/06/05 10:17:47;;;;;;;;;;;;;;;;;;5029813;28;4930;-61
2023/06/05 10:20:13;;;;;;;;;;;;;;;;;;5043429;28;4459;-60
2023/06/05 10:22:40;;;;;;;;;;;;;;;;;;5023051;28;4513;-63
2023/06/05 10:25:06;;;;;;;;;;;;;;;;;;5024904;28;4501;-63
2023/06/05 10:27:43;;;;;;;;;;;;;;;;;;5010952;28;4557;-63
2023/06/05 10:30:08;;;;;;;;;;;;;;;;;;5023212;28;3433;-61
2023/06/05 10:32:36;;;;;;;;;;;;;;;;;;5025460;28;4781;-62
2023/06/05 10:35:05;;;;;;;;;;;;;;;;;;5021774;28;4536;-64
2023/06/05 10:37:34;;;;;;;;;;;;;;;;;;5021240;28;4499;-65
2023/06/05 10:39:59;;;;;;;;;;;;;;;;;;5023718;28;4486;-61
2023/06/05 10:42:28;;;;;;;;;;;;;;;;;;5063080;28;2449;-61
2023/06/05 10:44:53;;;;;;;;;;;;;;;;;;5026296;28;4859;-58
2023/06/05 10:47:37;;;;;;;;;;;;;;;;;;5024778;28;4502;-60
2023/06/05 10:50:19;;;;;;;;;;;;;;;;;;5024324;28;4475;-58
2023/06/05 10:52:44;;;;;;;;;;;;;;;;;;5021166;28;4829;-58
2023/06/05 10:55:09;;;;;;;;;;;;;;;;;;5028839;28;4492;-60
2023/06/05 10:57:53;;;;;;;;;;;;;;;;;;5022754;28;5474;-58
2023/06/05 11:00:18;;;;;;;;;;;;;;;;;;5027027;28;3399;-60
2023/06/05 11:02:50;;;;;;;;;;;;;;;;;;5027423;28;4920;-62
2023/06/05 11:05:19;;;;;;;;;;;;;;;;;;5025256;28;4813;-60
2023/06/05 11:07:45;;;;;;;;;;;;;;;;;;5023981;28;5119;-58
2023/06/05 11:10:15;;;;;;;;;;;;;;;;;;5025643;28;4511;-56
2023/06/05 11:12:41;;;;;;;;;;;;;;;;;;5023440;28;5495;-57
2023/06/05 11:15:06;;;;;;;;;;;;;;;;;;5029970;28;3438;-56
2023/06/05 11:17:32;;;;;;;;;;;;;;;;;;5027381;28;5027;-57
2023/06/05 11:20:03;;;;;;;;;;;;;;;;;;5059361;28;4455;-60
2023/06/05 11:22:29;;;;;;;;;;;;;;;;;;5027836;28;4801;-62
2023/06/05 11:25:13;;;;;;;;;;;;;;;;;;5027434;28;4784;-57
2023/06/05 11:27:41;;;;;;;;;;;;;;;;;;5026924;28;4656;-62
2023/06/05 11:30:11;;;;;;;;;;;;;;;;;;5026265;28;3642;-62
2023/06/05 11:32:36;;;;;;;;;;;;;;;;;;5026414;28;5283;-62
2023/06/05 11:35:02;;;;;;;;;;;;;;;;;;5039491;28;4945;-63
2023/06/05 11:37:27;;;;;;;;;;;;;;;;;;5054936;28;5043;-58
2023/06/05 11:39:52;;;;;;;;;;;;;;;;;;5032027;28;4944;-65
2023/06/05 11:42:22;;;;;;;;;;;;;;;;;;5062246;28;3336;-59
2023/06/05 11:44:47;;;;;;;;;;;;;;;;;;5044681;28;5151;-61
2023/06/05 11:47:22;;;;;;;;;;;;;;;;;;5027034;28;4494;-61
2023/06/05 11:49:48;;;;;;;;;;;;;;;;;;5021725;28;4643;-64
2023/06/05 11:52:17;;;;;;;;;;;;;;;;;;5024150;28;4478;-60
2023/06/05 11:54:52;;;;;;;;;;;;;;;;;;5018708;28;4639;-60
2023/06/05 11:57:18;;;;;;;;;;;;;;;;;;5023591;28;3235;-60
2023/06/05 11:59:43;;;;;;;;;;;;;;;;;;5043963;28;4963;-62
2023/06/05 12:02:08;;;;;;;;;;;;;;;;;;5022238;28;4543;-63
2023/06/05 12:04:34;;;;;;;;;;;;;;;;;;5023463;28;4529;-63
2023/06/05 12:07:01;;;;;;;;;;;;;;;;;;5027119;28;5556;-62
2023/06/05 12:09:26;;;;;;;;;;;;;;;;;;5023351;28;3340;-61
2023/06/05 12:11:51;;;;;;;;;;;;;;;;;;5024759;28;4522;-61
2023/06/05 12:14:30;;;;;;;;;;;;;;;;;;5025506;28;4466;-61
2023/06/05 12:16:55;;;;;;;;;;;;;;;;;;5033459;28;4928;-61
2023/06/05 12:19:20;;;;;;;;;;;;;;;;;;5040792;28;4780;-61
2023/06/05 12:21:46;;;;;;;;;;;;;;;;;;5029062;28;4564;-61
2023/06/05 12:24:12;;;;;;;;;;;;;;;;;;5028211;28;3439;-62
2023/06/05 12:26:58;;;;;;;;;;;;;;;;;;5027764;28;5213;-63
2023/06/05 12:29:33;;;;;;;;;;;;;;;;;;5025117;28;4686;-62
2023/06/05 12:31:59;;;;;;;;;;;;;;;;;;5031094;28;4642;-64
2023/06/05 12:34:44;;;;;;;;;;;;;;;;;;5027456;28;4923;-61
2023/06/05 12:37:10;;;;;;;;;;;;;;;;;;5033543;28;4486;-62
2023/06/05 12:39:36;;;;;;;;;;;;;;;;;;5042104;28;4492;-63
2023/06/05 12:42:01;;;;;;;;;;;;;;;;;;5027762;28;4007;-67
2023/06/05 12:44:26;;;;;;;;;;;;;;;;;;5023819;28;4504;-61
2023/06/05 12:46:51;;;;;;;;;;;;;;;;;;5027049;28;4948;-61
2023/06/05 12:49:17;;;;;;;;;;;;;;;;;;5027619;28;4549;-61
2023/06/05 12:51:42;;;;;;;;;;;;;;;;;;5028832;28;4716;-62
2023/06/05 12:54:08;;;;;;;;;;;;;;;;;;5031739;28;3111;-63
2023/06/05 12:56:35;;;;;;;;;;;;;;;;;;5034095;28;4546;-61
2023/06/05 12:59:00;;;;;;;;;;;;;;;;;;5030000;28;4518;-62
2023/06/05 13:01:26;;;;;;;;;;;;;;;;;;5032207;28;4501;-61
2023/06/05 13:03:51;;;;;;;;;;;;;;;;;;5029149;28;4502;-62
2023/06/05 13:06:16;;;;;;;;;;;;;;;;;;5027738;28;3399;-61
2023/06/05 13:08:42;;;;;;;;;;;;;;;;;;5024904;28;4642;-63
2023/06/05 13:11:07;;;;;;;;;;;;;;;;;;5027344;28;4577;-61
2023/06/05 13:13:32;;;;;;;;;;;;;;;;;;5029292;28;5609;-62
2023/06/05 13:15:58;;;;;;;;;;;;;;;;;;5025572;28;5196;-61
2023/06/05 13:18:23;;;;;;;;;;;;;;;;;;5060365;28;4700;-62
2023/06/05 13:20:49;;;;;;;;;;;;;;;;;;5027301;28;4407;-62
2023/06/05 13:23:14;;;;;;;;;;;;;;;;;;5026746;28;4969;-63
2023/06/05 13:25:39;;;;;;;;;;;;;;;;;;5023147;28;4696;-61
2023/06/05 13:28:06;;;;;;;;;;;;;;;;;;5028898;28;4533;-61
2023/06/05 13:30:31;;;;;;;;;;;;;;;;;;5030317;28;4913;-62
2023/06/05 13:32:58;;;;;;;;;;;;;;;;;;5033005;28;1231;-62
2023/06/05 13:35:24;;;;;;;;;;;;;;;;;;5060791;28;4835;-63
2023/06/05 13:37:51;;;;;;;;;;;;;;;;;;5028371;28;5095;-62
2023/06/05 13:40:17;;;;;;;;;;;;;;;;;;5030227;28;4684;-62
2023/06/05 13:42:42;;;;;;;;;;;;;;;;;;5031878;28;4600;-63
2023/06/05 13:45:08;;;;;;;;;;;;;;;;;;5033812;28;1353;-62
2023/06/05 13:47:33;;;;;;;;;;;;;;;;;;5026885;28;4897;-63
2023/06/05 13:49:59;;;;;;;;;;;;;;;;;;5035720;28;4469;-63
2023/06/05 13:52:24;;;;;;;;;;;;;;;;;;5030487;28;4663;-61
2023/06/05 13:54:50;;;;;;;;;;;;;;;;;;5026527;28;4837;-61
2023/06/05 13:57:16;;;;;;;;;;;;;;;;;;5060878;28;1379;-62
2023/06/05 13:59:42;;;;;;;;;;;;;;;;;;5026556;28;4467;-61
2023/06/05 14:02:07;;;;;;;;;;;;;;;;;;5031638;28;4599;-63
2023/06/05 14:04:32;;;;;;;;;;;;;;;;;;5030957;28;4795;-61
2023/06/05 14:06:58;;;;;;;;;;;;;;;;;;5025295;28;4677;-62
2023/06/05 14:09:24;;;;;;;;;;;;;;;;;;5020504;28;3625;-61
2023/06/05 14:11:50;;;;;;;;;;;;;;;;;;5022725;28;4701;-62
2023/06/05 14:14:15;;;;;;;;;;;;;;;;;;5027038;28;4613;-61
2023/06/05 14:16:41;;;;;;;;;;;;;;;;;;5027881;28;5594;-61
2023/06/05 14:19:07;;;;;;;;;;;;;;;;;;5027037;28;4830;-62
2023/06/05 14:21:32;;;;;;;;;;;;;;;;;;5027707;28;5156;-64
2023/06/05 14:23:57;;;;;;;;;;;;;;;;;;5023430;28;3906;-62
2023/06/05 14:26:23;;;;;;;;;;;;;;;;;;5028130;28;4621;-62
2023/06/05 14:28:48;;;;;;;;;;;;;;;;;;5029325;28;4492;-61
2023/06/05 14:31:13;;;;;;;;;;;;;;;;;;5062269;28;4713;-61
2023/06/05 14:33:38;;;;;;;;;;;;;;;;;;5030405;28;4671;-61
2023/06/05 14:36:04;;;;;;;;;;;;;;;;;;5026893;28;3342;-62
2023/06/05 14:38:30;;;;;;;;;;;;;;;;;;5042132;28;5092;-62
2023/06/05 14:40:57;;;;;;;;;;;;;;;;;;5030495;28;4463;-62
2023/06/05 14:43:22;;;;;;;;;;;;;;;;;;5028461;28;4894;-62
2023/06/05 14:45:47;;;;;;;;;;;;;;;;;;5039423;28;4500;-63
2023/06/05 14:48:13;;;;;;;;;;;;;;;;;;5027889;28;3423;-62
2023/06/05 14:50:38;;;;;;;;;;;;;;;;;;5027675;28;4636;-62
2023/06/05 14:53:03;;;;;;;;;;;;;;;;;;5026017;28;4470;-61
2023/06/05 14:55:29;;;;;;;;;;;;;;;;;;5030629;28;4704;-62
2023/06/05 14:57:55;;;;;;;;;;;;;;;;;;5029851;28;4645;-61
2023/06/05 15:00:20;;;;;;;;;;;;;;;;;;5025910;28;3724;-62
2023/06/05 15:02:46;;;;;;;;;;;;;;;;;;5026304;28;4560;-61
2023/06/05 15:05:11;;;;;;;;;;;;;;;;;;5018677;28;5107;-61
2023/06/05 15:07:37;;;;;;;;;;;;;;;;;;5024403;28;5091;-62
2023/06/05 15:10:02;;;;;;;;;;;;;;;;;;5034176;28;5219;-61
2023/06/05 15:12:28;;;;;;;;;;;;;;;;;;5031432;28;3536;-63
2023/06/05 15:14:53;;;;;;;;;;;;;;;;;;5059622;28;4421;-62
2023/06/05 15:17:18;;;;;;;;;;;;;;;;;;5058427;28;4457;-63
2023/06/05 15:19:44;;;;;;;;;;;;;;;;;;5022238;28;4681;-66
2023/06/05 15:22:10;;;;;;;;;;;;;;;;;;5022701;28;5052;-63
2023/06/05 15:24:35;;;;;;;;;;;;;;;;;;5025413;28;4502;-63
2023/06/05 15:27:01;;;;;;;;;;;;;;;;;;5028179;28;3297;-62
2023/06/05 15:29:26;;;;;;;;;;;;;;;;;;5023535;28;4510;-63
2023/06/05 15:31:51;;;;;;;;;;;;;;;;;;5027343;28;4508;-63
2023/06/05 15:34:17;;;;;;;;;;;;;;;;;;5028783;28;5050;-62
2023/06/05 15:36:42;;;;;;;;;;;;;;;;;;5023653;28;5132;-63
2023/06/05 15:39:07;;;;;;;;;;;;;;;;;;5027685;28;3451;-61
2023/06/05 15:41:32;;;;;;;;;;;;;;;;;;5029214;28;5579;-65
2023/06/05 15:43:58;;;;;;;;;;;;;;;;;;5026877;28;4654;-63
2023/06/05 15:46:23;;;;;;;;;;;;;;;;;;5025737;28;4702;-61
2023/06/05 15:48:49;;;;;;;;;;;;;;;;;;5025852;28;4508;-62
2023/06/05 15:51:15;;;;;;;;;;;;;;;;;;5043838;28;3422;-64
2023/06/05 15:53:41;;;;;;;;;;;;;;;;;;5021111;28;4993;-64
2023/06/05 15:56:07;;;;;;;;;;;;;;;;;;5026012;28;4779;-64
2023/06/05 15:58:33;;;;;;;;;;;;;;;;;;5029114;28;4517;-65
2023/06/05 16:00:59;;;;;;;;;;;;;;;;;;5024162;28;4539;-61
2023/06/05 16:03:24;;;;;;;;;;;;;;;;;;5026522;28;3288;-63
2023/06/05 16:05:49;;;;;;;;;;;;;;;;;;5018700;28;4609;-62
2023/06/05 16:08:16;;;;;;;;;;;;;;;;;;5036564;28;4695;-64
2023/06/05 16:10:41;;;;;;;;;;;;;;;;;;5020709;28;4525;-66
2023/06/05 16:13:10;;;;;;;;;;;;;;;;;;5021816;28;4724;-65
2023/06/05 16:15:36;;;;;;;;;;;;;;;;;;5018512;28;4923;-66
2023/06/05 16:18:01;;;;;;;;;;;;;;;;;;5023122;28;4701;-65
2023/06/05 16:20:26;;;;;;;;;;;;;;;;;;5024042;28;5042;-64
2023/06/05 16:22:53;;;;;;;;;;;;;;;;;;5025145;28;4855;-65
2023/06/05 16:25:18;;;;;;;;;;;;;;;;;;5025076;28;4552;-64
2023/06/05 16:27:43;;;;;;;;;;;;;;;;;;5025345;28;4605;-65
2023/06/05 16:30:09;;;;;;;;;;;;;;;;;;5027096;28;1967;-64
2023/06/05 16:32:35;;;;;;;;;;;;;;;;;;5024747;28;4682;-66
2023/06/05 16:35:02;;;;;;;;;;;;;;;;;;5039367;28;5461;-67
2023/06/05 16:37:29;;;;;;;;;;;;;;;;;;5024949;28;5003;-64
2023/06/05 16:39:54;;;;;;;;;;;;;;;;;;5024880;28;4624;-65
2023/06/05 16:42:19;;;;;;;;;;;;;;;;;;5025367;28;1078;-66
2023/06/05 16:44:45;;;;;;;;;;;;;;;;;;5056655;28;4465;-66
2023/06/05 16:47:10;;;;;;;;;;;;;;;;;;5023090;28;4470;-68
2023/06/05 16:49:36;;;;;;;;;;;;;;;;;;5023801;28;4538;-65
2023/06/05 16:52:01;;;;;;;;;;;;;;;;;;5025907;28;4509;-66
2023/06/05 16:54:27;;;;;;;;;;;;;;;;;;5024742;28;3358;-65
2023/06/05 16:56:53;;;;;;;;;;;;;;;;;;5026052;28;4891;-64
2023/06/05 16:59:18;;;;;;;;;;;;;;;;;;5025331;28;4475;-64